Latest Weather Observations for Hunters Hill

IDV60801

Issued at 5:05 pm EST Saturday 26 July 2014 (issued every 30 minutes, with the page automatically refreshed every 10 minutes)

About weather observations | Map of weather stations | Latest weather observations for VIC | Other Formats
Station Details ID: 082139 Name: HUNTERS HILL Lat: -36.21 Lon: 147.54 Height: 981.0 m
Data from the previous 72 hours. | See also: Recent months at Hunters Hill
Date/Time
EST
Temp
°C
App
Temp
°C
Dew
Point
Rel
Hum
%
Delta-T
°C
Wind Press
QNH
hPa
Press
MSL
hPa
Rain
since 9 am
mm
Dir
 
Spd
km/h
Gust
km/h
Spd
kts
Gust
kts
26/05:00pm 5.4 3.0 5.4 100 0.0 W 7 17 4 9 - - 0.2
26/04:30pm 5.9 3.3 5.9 100 0.0 WSW 9 19 5 10 - - 0.0
26/04:00pm 6.2 4.0 6.2 100 0.0 W 7 17 4 9 - - 0.0
26/03:30pm 6.3 3.7 6.3 100 0.0 W 9 17 5 9 - - 0.0
26/03:00pm 6.5 4.3 6.4 99 0.0 W 7 17 4 9 - - 0.0
26/02:30pm 6.8 4.3 6.7 99 0.0 W 9 19 5 10 - - 0.0
26/02:00pm 6.6 4.1 6.6 100 0.0 WNW 9 17 5 9 - - 0.0
26/01:30pm 7.0 5.2 7.0 100 0.0 WNW 6 13 3 7 - - 0.0
26/01:00pm 6.3 4.1 6.3 100 0.0 W 7 13 4 7 - - 0.0
26/12:30pm 6.6 4.5 6.6 100 0.0 W 7 15 4 8 - - 0.0
26/12:00pm 6.7 4.8 6.7 100 0.0 W 6 11 3 6 - - 0.0
26/11:30am 6.1 4.4 6.1 100 0.0 W 4 7 2 4 - - 0.0
26/11:00am 6.4 4.4 6.4 100 0.0 W 6 11 3 6 - - 0.0
26/10:30am 6.1 4.4 6.1 100 0.0 W 4 6 2 3 - - 0.0
26/10:00am 6.0 4.3 6.0 100 0.0 W 4 7 2 4 - - 0.0
26/09:30am 5.6 3.8 5.6 100 0.0 W 4 6 2 3 - - 0.0
26/09:00am 5.7 4.0 5.7 100 0.0 W 4 6 2 3 - - 0.4
26/08:30am 5.0 3.1 5.0 100 0.0 W 4 6 2 3 - - 0.4
26/08:00am 5.3 3.5 5.3 100 0.0 W 4 7 2 4 - - 0.4
26/07:30am 5.0 3.1 5.0 100 0.0 W 4 6 2 3 - - 0.4
26/07:00am 5.0 3.1 5.0 100 0.0 W 4 7 2 4 - - 0.4
26/06:30am 4.9 2.6 4.9 100 0.0 W 6 7 3 4 - - 0.4
26/06:00am 4.7 2.8 4.7 100 0.0 W 4 7 2 4 - - 0.4
26/05:30am 4.5 2.5 4.5 100 0.0 W 4 6 2 3 - - 0.4
26/05:00am 5.1 2.9 5.1 100 0.0 W 6 9 3 5 - - 0.4
26/04:30am 5.2 3.4 5.2 100 0.0 W 4 7 2 4 - - 0.2
26/04:00am 5.4 3.0 5.3 99 0.0 W 7 13 4 7 - - 0.2
26/03:30am 5.6 3.3 5.6 100 0.0 W 7 13 4 7 - - 0.2
26/03:00am 5.6 3.5 5.6 100 0.0 W 6 13 3 7 - - 0.2
26/02:30am 6.5 4.7 5.5 93 0.5 NNW 4 7 2 4 - - 0.0
26/02:00am 6.4 4.2 5.5 94 0.4 NNW 6 9 3 5 - - 0.0
26/01:30am 6.5 4.3 5.1 91 0.7 NNW 6 7 3 4 - - 0.0
26/01:00am 6.4 4.2 5.2 92 0.6 NNW 6 9 3 5 - - 0.0
26/12:30am 6.6 4.4 5.1 90 0.7 NNW 6 9 3 5 - - 0.0
26/12:00am 6.7 4.5 5.3 91 0.7 NNW 6 7 3 4 - - 0.0
 
Date/Time
EST
Temp
°C
App
Temp
°C
Dew
Point
Rel
Hum
%
Delta-T
°C
Wind Press
QNH
hPa
Press
MSL
hPa
Rain
since 9 am
mm
Dir
 
Spd
km/h
Gust
km/h
Spd
kts
Gust
kts
25/11:30pm 6.7 4.6 5.7 93 0.5 NNW 6 11 3 6 - - 0.0
25/11:00pm 6.7 4.6 5.7 93 0.5 NNW 6 11 3 6 - - 0.0
25/10:30pm 6.8 4.7 5.6 92 0.6 NNW 6 9 3 5 - - 0.0
25/10:00pm 6.7 4.6 5.7 93 0.5 NNW 6 11 3 6 - - 0.0
25/09:30pm 6.9 4.8 5.8 93 0.5 NNW 6 9 3 5 - - 0.0
25/09:00pm 7.0 4.9 5.8 92 0.6 NNW 6 9 3 5 - - 0.0
25/08:30pm 6.9 4.7 5.4 90 0.7 NNW 6 13 3 7 - - 0.0
25/08:00pm 7.5 4.3 5.3 86 1.0 N 11 20 6 11 - - 0.0
25/07:30pm 7.5 5.2 5.5 87 0.9 NNW 7 19 4 10 - - 0.0
25/07:00pm 7.7 5.2 5.0 83 1.3 NNW 7 19 4 10 - - 0.0
25/06:30pm 7.8 4.5 4.6 80 1.5 NNW 11 22 6 12 - - 0.0
25/06:00pm 7.9 5.4 4.7 80 1.5 N 7 15 4 8 - - 0.0
25/05:30pm 8.1 5.6 4.5 78 1.7 NNW 7 13 4 7 - - 0.0
25/05:00pm 8.2 5.6 4.2 76 1.9 NNW 7 11 4 6 - - 0.0
25/04:30pm 9.2 6.0 3.0 65 2.8 NNW 9 20 5 11 - - 0.0
25/04:00pm 8.9 5.9 3.9 71 2.3 NW 9 17 5 9 - - 0.0
25/03:30pm 9.7 6.3 4.1 68 2.6 NW 11 20 6 11 - - 0.0
25/03:00pm 9.2 5.7 3.6 68 2.6 NW 11 24 6 13 - - 0.0
25/02:30pm 9.9 6.5 3.9 66 2.8 NW 11 22 6 12 - - 0.0
25/02:00pm 10.0 7.5 6.5 79 1.7 N 9 17 5 9 - - 0.0
25/01:30pm 11.2 8.8 6.9 75 2.2 NNW 9 20 5 11 - - 0.0
25/01:00pm 9.9 7.2 5.5 74 2.1 NNW 9 19 5 10 - - 0.0
25/12:30pm 9.5 7.2 5.9 78 1.8 NNW 7 17 4 9 - - 0.0
25/12:00pm 10.0 8.1 7.4 84 1.3 NNW 7 17 4 9 - - 0.0
25/11:30am 9.7 7.3 7.0 83 1.3 NNW 9 19 5 10 - - 0.0
25/11:00am 9.3 7.8 8.5 95 0.4 N 6 11 3 6 - - 0.0
25/10:30am 8.4 6.7 7.5 94 0.4 NNW 6 11 3 6 - - 0.0
25/10:00am 8.0 6.8 7.9 99 0.1 N 4 11 2 6 - - 0.0
25/09:30am 7.8 6.9 7.8 100 0.0 N 2 7 1 4 - - 0.0
25/09:00am 6.4 4.8 6.4 100 0.0 NNW 4 7 2 4 - - 1.2
25/08:30am 6.1 4.1 6.1 100 0.0 N 6 9 3 5 - - 1.0
25/08:00am 5.6 3.5 5.6 100 0.0 N 6 9 3 5 - - 1.0
25/07:30am 5.3 3.1 5.3 100 0.0 N 6 11 3 6 - - 1.0
25/07:00am 5.2 3.0 5.2 100 0.0 NNE 6 13 3 7 - - 1.0
25/06:30am 5.3 3.5 5.3 100 0.0 NNE 4 6 2 3 - - 1.0
25/06:00am 5.4 3.6 5.4 100 0.0 NNE 4 9 2 5 - - 1.0
25/05:30am 5.5 3.7 5.5 100 0.0 NNE 4 9 2 5 - - 1.0
25/05:00am 5.8 4.5 5.8 100 0.0 NNE 2 7 1 4 - - 1.0
25/04:30am 5.7 4.3 5.7 100 0.0 NNE 2 7 1 4 - - 1.0
25/04:00am 6.0 3.9 6.0 100 0.0 NNE 6 9 3 5 - - 1.0
25/03:30am 6.1 4.1 6.1 100 0.0 N 6 11 3 6 - - 1.0
25/03:00am 6.3 4.1 6.3 100 0.0 NNE 7 15 4 8 - - 1.0
25/02:30am 6.6 4.1 6.6 100 0.0 N 9 17 5 9 - - 1.0
25/02:00am 6.7 4.2 6.7 100 0.0 N 9 17 5 9 - - 1.0
25/01:30am 6.5 4.0 6.5 100 0.0 N 9 17 5 9 - - 1.0
25/01:00am 6.1 3.5 6.1 100 0.0 NNE 9 15 5 8 - - 1.0
25/12:30am 6.3 3.4 6.3 100 0.0 NNE 11 20 6 11 - - 1.0
25/12:00am 6.3 3.7 6.3 100 0.0 NNE 9 19 5 10 - - 1.0
 
Date/Time
EST
Temp
°C
App
Temp
°C
Dew
Point
Rel
Hum
%
Delta-T
°C
Wind Press
QNH
hPa
Press
MSL
hPa
Rain
since 9 am
mm
Dir
 
Spd
km/h
Gust
km/h
Spd
kts
Gust
kts
24/11:30pm 6.2 4.0 6.1 99 0.0 NNE 7 15 4 8 - - 1.0
24/11:00pm 5.8 3.1 5.7 99 0.0 NE 9 15 5 8 - - 1.0
24/10:30pm 6.1 3.5 6.0 99 0.0 NNE 9 15 5 8 - - 1.0
24/10:00pm 6.1 3.4 5.8 98 0.1 N 9 15 5 8 - - 1.0
24/09:30pm 6.1 3.8 5.7 97 0.2 NNE 7 13 4 7 - - 1.0
24/09:00pm 6.0 3.7 5.9 99 0.0 NE 7 11 4 6 - - 1.0
24/08:30pm 5.8 3.5 5.7 99 0.0 NE 7 9 4 5 - - 1.0
24/08:00pm 5.3 3.1 5.3 100 0.0 NE 6 7 3 4 - - 0.8
24/07:30pm 5.0 3.1 5.0 100 0.0 NE 4 7 2 4 - - 0.8
24/07:00pm 4.5 2.5 4.5 100 0.0 NE 4 7 2 4 - - 0.8
24/06:30pm 4.4 2.4 4.4 100 0.0 NE 4 6 2 3 - - 0.8
24/06:00pm 4.6 2.6 4.6 100 0.0 NE 4 7 2 4 - - 0.8
24/05:30pm 4.9 3.0 4.8 99 0.0 NE 4 7 2 4 - - 0.8
24/05:00pm 5.2 3.0 5.1 99 0.0 NE 6 7 3 4 - - 0.8
24/04:30pm 5.2 3.7 5.2 100 0.0 NE 2 6 1 3 - - 0.8
24/04:00pm 5.2 3.4 5.2 100 0.0 NE 4 9 2 5 - - 0.8
24/03:30pm 5.3 3.5 5.3 100 0.0 NE 4 7 2 4 - - 0.8
24/03:00pm 5.5 3.7 5.5 100 0.0 NE 4 6 2 3 - - 0.8
24/02:30pm 5.1 3.2 5.1 100 0.0 NE 4 7 2 4 - - 0.8
24/02:00pm 4.9 2.6 4.9 100 0.0 NE 6 7 3 4 - - 0.8
24/01:30pm 5.2 2.8 5.2 100 0.0 NE 7 17 4 9 - - 0.8
24/01:00pm 5.5 3.3 5.5 100 0.0 NE 6 9 3 5 - - 0.8
24/12:30pm 5.3 3.1 5.3 100 0.0 NE 6 9 3 5 - - 0.8
24/12:00pm 4.7 2.4 4.7 100 0.0 NE 6 11 3 6 - - 0.6
24/11:30am 4.7 1.8 4.6 99 0.0 NNE 9 19 5 10 - - 0.4
24/11:00am 5.1 2.4 3.6 90 0.7 NNE 7 19 4 10 - - 0.0
24/10:30am 5.9 3.2 2.7 80 1.4 NW 6 9 3 5 - - 0.0
24/10:00am 6.0 3.3 2.6 79 1.5 NW 6 9 3 5 - - 0.0
24/09:30am 5.4 2.6 2.1 79 1.4 NW 6 11 3 6 - - 0.0
24/09:00am 5.0 2.5 1.5 78 1.5 NW 4 7 2 4 - - 0.0
24/08:30am 4.5 2.0 1.7 82 1.2 NW 4 7 2 4 - - 0.0
24/08:00am 3.9 1.7 1.1 82 1.2 NW 2 6 1 3 - - 0.0
24/07:30am 4.0 1.5 1.4 83 1.1 NW 4 6 2 3 - - 0.0
24/07:00am 3.8 1.6 1.2 83 1.1 NW 2 4 1 2 - - 0.0
24/06:30am 3.3 1.2 2.0 91 0.5 NW 2 4 1 2 - - 0.0
24/06:00am 3.2 1.1 2.0 92 0.5 NW 2 4 1 2 - - 0.0
24/05:30am 3.1 1.0 1.9 92 0.5 NW 2 6 1 3 - - 0.0
24/05:00am 3.4 1.0 2.2 92 0.5 NW 4 6 2 3 - - 0.0
24/04:30am 3.7 1.7 2.4 91 0.6 NW 2 4 1 2 - - 0.0
24/04:00am 4.1 1.6 1.8 85 1.0 NW 4 6 2 3 - - 0.0
24/03:30am 4.2 1.4 2.1 86 0.9 NW 6 7 3 4 - - 0.0
24/03:00am 3.4 1.2 3.1 98 0.1 NW 4 6 2 3 - - 0.0
24/02:30am 3.0 1.1 2.9 99 0.0 NW 2 4 1 2 - - 0.0
24/02:00am 2.9 0.6 2.6 98 0.1 NW 4 6 2 3 - - 0.0
24/01:30am 3.0 1.0 2.3 95 0.3 NW 2 4 1 2 - - 0.0
24/01:00am 3.3 1.3 2.4 94 0.4 NW 2 6 1 3 - - 0.0
24/12:30am 3.4 1.1 2.8 96 0.3 NW 4 6 2 3 - - 0.0
24/12:00am 3.6 1.3 2.6 93 0.4 NW 4 6 2 3 - - 0.0
 
Date/Time
EST
Temp
°C
App
Temp
°C
Dew
Point
Rel
Hum
%
Delta-T
°C
Wind Press
QNH
hPa
Press
MSL
hPa
Rain
since 9 am
mm
Dir
 
Spd
km/h
Gust
km/h
Spd
kts
Gust
kts
23/11:30pm 3.7 1.4 2.7 93 0.4 NW 4 6 2 3 - - 0.0
23/11:00pm 3.6 1.7 2.7 94 0.4 NW 2 2 1 1 - - 0.0
23/10:30pm 4.3 2.2 4.0 98 0.1 NW 4 4 2 2 - - 0.0
23/10:00pm 4.7 2.3 4.4 98 0.1 NW 6 7 3 4 - - 0.0
23/09:30pm 4.5 2.4 3.9 96 0.3 NW 4 6 2 3 - - 0.0
23/09:00pm 4.8 2.4 4.2 96 0.3 NW 6 7 3 4 - - 0.0
23/08:30pm 4.6 2.0 3.4 92 0.5 NW 6 7 3 4 - - 0.0
23/08:00pm 4.6 1.9 2.9 89 0.7 NW 6 7 3 4 - - 0.0
23/07:30pm 4.8 2.5 2.5 85 1.0 NW 4 7 2 4 - - 0.0
23/07:00pm 4.8 2.9 3.1 89 0.7 NW 2 6 1 3 - - 0.0
23/06:30pm 4.9 2.4 3.6 91 0.6 NW 6 7 3 4 - - 0.0
23/06:00pm 5.3 3.1 3.3 87 0.9 NW 4 4 2 2 - - 0.0
23/05:30pm 5.6 4.3 4.1 90 0.7 CALM 0 0 0 0 - - 0.0

Other Formats:

Comma delimited format used in spreadsheet applications
http://www.bom.gov.au/fwo/IDV60801/IDV60801.94878.axf

JavaScript Object Notation format (JSON) in row-major order
http://www.bom.gov.au/fwo/IDV60801/IDV60801.94878.json